Binefar, Spain
Current Conditions -  °F | °C
As of 10:00 AM on Wednesday 22 Oct 2014 (Local Time) from LEHC Reporting Station
Clear Clear  
Wind Chill: 55°   Ceiling: Unl
Heat Index: 55°   Visibility: 6mi
Dew Point: 37°   Wind: 22mph
Humidity: 51%   Direction: 270°W
Pressure: 30.27"   Gusts: NA
Location:  41.85°N, 0.29°E
Report Text: LEHC 220800Z AUTO 27019KT CAVOK 13/03 Q1025
Loading
Personal Weather Stations






























Interactive Weather Map
Tropical Storm Tracking
New forecast layout! Learn more

10-Day Weather Forecast

Advertisements
Track Severe Weather on mobile